createdAt,value
2018-04-22T01:43:50.600Z,99.90
2018-04-22T04:10:27.000Z,90.20
2018-04-22T04:12:54.456Z,96.90
2018-04-22T04:29:01.940Z,90.80
2018-04-22T04:31:29.419Z,90.80
2018-04-22T04:33:56.916Z,90.90
2018-04-22T04:36:24.387Z,90.90
2018-04-22T04:38:51.879Z,90.90
2018-04-22T04:41:19.372Z,91.00
2018-04-22T04:43:46.833Z,91.10
2018-04-22T04:46:14.340Z,91.50
2018-04-22T04:48:41.916Z,91.30
2018-04-22T04:51:09.389Z,91.30
2018-04-22T04:53:37.624Z,91.30
2018-04-22T04:56:05.102Z,91.30
2018-04-22T07:10:03.439Z,76.60
2018-04-22T07:12:30.946Z,76.50
2018-04-22T07:14:59.168Z,77.50
2018-04-22T07:17:27.501Z,77.50
2018-04-22T07:19:55.764Z,75.70
2018-04-22T07:22:24.023Z,76.00
2018-04-22T07:24:51.516Z,75.40
2018-04-22T07:42:13.988Z,70.40
2018-04-22T07:44:41.487Z,71.50
2018-04-22T07:47:08.960Z,71.70
2018-04-22T07:49:37.212Z,70.90
2018-04-22T07:52:04.683Z,70.90
2018-04-22T07:54:32.166Z,70.90
2018-04-22T07:56:59.628Z,70.80
2018-04-22T07:59:27.131Z,71.30
2018-04-22T08:01:54.604Z,71.50
2018-04-22T08:04:22.103Z,70.60
2018-04-22T08:06:49.661Z,70.50
2018-04-22T08:09:17.868Z,69.60
2018-04-22T08:11:45.349Z,69.50
2018-04-22T08:14:12.813Z,69.60
2018-04-22T08:16:40.289Z,68.50
2018-04-22T08:19:08.524Z,68.30
2018-04-22T08:21:36.008Z,68.20
2018-04-22T08:24:04.240Z,68.70
2018-04-22T08:26:31.773Z,68.80
2018-04-22T08:28:59.263Z,67.30
2018-04-22T08:43:52.130Z,62.30
2018-04-22T08:46:19.617Z,62.80
2018-04-22T08:48:47.867Z,63.00
2018-04-22T08:51:15.359Z,63.00
2018-04-22T08:53:43.607Z,61.90
2018-04-22T08:56:11.107Z,61.80
2018-04-22T08:58:38.617Z,62.50
2018-04-22T09:01:06.075Z,59.50
2018-04-22T09:08:32.244Z,55.50
2018-04-22T09:10:59.720Z,56.00
2018-04-22T09:55:39.230Z,48.60
2018-04-22T09:58:06.708Z,49.00
